Sacramento, CA

7:11 AM PST on December 05, 2016 (GMT -0800)
Lincoln Oaks | | Change Station

Elev 161 ft 38.67 °N, 121.30 °W | Updated 466 days ago

Clear
Clear
47 °F
Feels Like 43 °F
N
7
Wind Variable Wind from NNW
Gusts mph

Today
High -- | Low -- °F
--% Chance of Precip.
Yesterday
High -- | Low -- °F
Precip. -- in
Pressure 30.09 in
Visibility 4.0 miles
Clouds Few 2400 ft
Windchill 43 °F
Dew Point 41 °F
Humidity 79%
Rainfall in
Snow Depth Not available.
7:08 AM 4:44 PM
Waxing Crescent, 32% visible
METAR KMHR 051445Z 00000KT 4SM BR FEW024 03/03 A3009
Pressure 30.09 in
Visibility 4.0 miles
Clouds Few 2400 ft
Windchill 43 °F
Dew Point 41 °F
Humidity 79%
Rainfall in
Snow Depth Not available.
7:08 AM 4:44 PM
Waxing Crescent, 32% visible
METAR KMHR 051445Z 00000KT 4SM BR FEW024 03/03 A3009

10-Day Weather Forecast

Almanac

Astronomy

Dec. 05, 2016 Rise Set
Actual Time
Civil Twilight
Nautical Twilight
Astronomical Twilight
Moon
Length of Visible Light
Length of Day
Tomorrow will be .
, % of the Moon is Illuminated

Today's Extremes

State Highs State Lows

Community

WunderPhotos

Upload Photos

1,955,789 photos uploaded!

WunderBlog® & News

Nearby

Air Quality

  Air Quality AQ Index Pollutant
Not available.

Snow Depth

Station Depth Elevation

Earthquake Activity

City Distance Mag. Time & Date
Minimum magnitude displayed is 2.5.

Coastal Water Temperatures

Place Temperature

Stations

Nearby Weather Stations

Station Location Temp. Windchill Dew Point Humidity Wind Precip. Elev Updated Type
                   

Watches & Warnings

There are currently no watches in effect.